createdAt,value
2018-07-20T00:00:04.422Z,7.10
2018-07-20T00:01:09.386Z,6.72
2018-07-20T00:02:14.860Z,6.72
2018-07-20T00:03:21.151Z,6.83
2018-07-20T00:04:26.323Z,6.35
2018-07-20T00:05:31.694Z,6.33
2018-07-20T00:06:38.107Z,6.85
2018-07-20T00:07:43.250Z,7.22
2018-07-20T00:08:47.834Z,7.03
2018-07-20T00:09:52.350Z,6.08
2018-07-20T00:10:59.091Z,7.22
2018-07-20T00:12:04.052Z,6.97
2018-07-20T00:13:08.787Z,6.65
2018-07-20T00:14:15.060Z,6.33
2018-07-20T00:15:20.800Z,7.42
2018-07-20T00:16:26.035Z,7.08
2018-07-20T00:17:30.300Z,7.22
2018-07-20T00:18:35.192Z,7.05
2018-07-20T00:19:40.470Z,6.65
2018-07-20T00:20:44.717Z,7.28
2018-07-20T00:21:50.089Z,6.75
2018-07-20T00:22:54.305Z,7.90
2018-07-20T00:23:58.611Z,7.17
2018-07-20T00:25:03.220Z,6.47
2018-07-20T00:26:08.021Z,7.05
2018-07-20T00:27:13.848Z,7.65
2018-07-20T00:28:18.805Z,8.30
2018-07-20T00:29:22.985Z,7.12
2018-07-20T00:30:28.391Z,7.83
2018-07-20T00:31:33.092Z,7.30
2018-07-20T00:32:37.949Z,7.97
2018-07-20T00:33:43.302Z,8.05
2018-07-20T00:34:47.869Z,7.50
2018-07-20T00:35:53.667Z,8.00
2018-07-20T00:36:58.657Z,6.40
2018-07-20T00:38:02.930Z,8.10
2018-07-20T00:39:10.375Z,6.90
2018-07-20T00:40:15.930Z,5.70
2018-07-20T00:41:20.452Z,7.55
2018-07-20T00:42:24.663Z,6.50
2018-07-20T00:43:29.771Z,8.18
2018-07-20T00:44:34.063Z,7.17
2018-07-20T00:45:39.251Z,6.85
2018-07-20T00:46:43.637Z,7.08
2018-07-20T00:47:48.578Z,5.90
2018-07-20T00:48:53.743Z,7.47
2018-07-20T00:49:58.110Z,6.95
2018-07-20T00:51:03.141Z,7.37
2018-07-20T00:52:07.874Z,7.40
2018-07-20T00:53:12.112Z,6.67
2018-07-20T00:54:16.543Z,7.37
2018-07-20T00:55:21.496Z,7.00
2018-07-20T00:58:22.199Z,6.53
2018-07-20T00:59:26.193Z,7.05
2018-07-20T01:00:30.343Z,6.87
2018-07-20T01:01:34.596Z,7.28
2018-07-20T01:02:40.083Z,6.22
2018-07-20T01:03:44.841Z,6.67
2018-07-20T01:04:49.901Z,7.70
2018-07-20T01:05:54.650Z,7.83
2018-07-20T01:06:59.091Z,7.92
2018-07-20T01:08:03.612Z,9.60
2018-07-20T01:09:08.426Z,7.70
2018-07-20T01:10:12.922Z,7.42
2018-07-20T01:11:16.994Z,9.08
2018-07-20T01:12:21.613Z,7.72
2018-07-20T01:13:26.327Z,6.40
2018-07-20T01:14:30.397Z,7.28
2018-07-20T01:15:35.371Z,7.08
2018-07-20T01:16:41.347Z,7.80
2018-07-20T01:17:45.550Z,7.00
2018-07-20T01:18:50.268Z,6.75
2018-07-20T01:19:54.447Z,7.65
2018-07-20T01:20:58.697Z,7.00
2018-07-20T01:22:02.677Z,7.75
2018-07-20T01:23:06.937Z,6.67
2018-07-20T01:24:13.133Z,8.28
2018-07-20T01:25:17.242Z,7.47
2018-07-20T01:26:21.190Z,6.87
2018-07-20T01:27:26.641Z,7.15
2018-07-20T01:28:31.720Z,7.37
2018-07-20T01:29:36.513Z,6.58
2018-07-20T01:30:41.029Z,6.42
2018-07-20T01:31:45.797Z,7.97
2018-07-20T01:32:50.282Z,6.10
2018-07-20T01:33:55.151Z,7.45
2018-07-20T01:35:00.522Z,7.47
2018-07-20T01:36:05.034Z,7.50
2018-07-20T01:37:09.622Z,6.50
2018-07-20T01:38:13.702Z,6.55
2018-07-20T01:39:18.420Z,8.58
2018-07-20T01:40:22.634Z,7.80
2018-07-20T01:41:27.207Z,7.67
2018-07-20T01:42:31.208Z,7.37
2018-07-20T01:43:35.326Z,7.22
2018-07-20T01:44:39.853Z,7.67
2018-07-20T01:45:44.829Z,8.33
2018-07-20T01:46:49.785Z,7.55
2018-07-20T01:47:54.927Z,7.28
2018-07-20T01:48:59.620Z,7.00
2018-07-20T01:50:04.786Z,6.92
2018-07-20T01:51:09.435Z,8.40
2018-07-20T01:52:14.251Z,7.30
2018-07-20T01:53:19.257Z,7.95
2018-07-20T01:54:23.846Z,7.83
2018-07-20T01:55:28.849Z,8.23
2018-07-20T01:56:33.497Z,8.48
2018-07-20T01:57:38.405Z,7.97
2018-07-20T01:58:42.961Z,9.60
2018-07-20T01:59:47.488Z,7.87
2018-07-20T02:00:52.011Z,9.35
2018-07-20T02:01:56.838Z,9.23
2018-07-20T02:03:01.632Z,7.30
2018-07-20T02:04:06.742Z,7.70
2018-07-20T02:05:11.134Z,8.80
2018-07-20T02:06:15.357Z,7.83
2018-07-20T02:07:20.101Z,7.65
2018-07-20T02:08:24.197Z,7.53
2018-07-20T02:09:28.731Z,7.40
2018-07-20T02:10:32.722Z,7.70
2018-07-20T02:11:37.818Z,7.55
2018-07-20T02:12:42.701Z,7.37
2018-07-20T02:13:48.419Z,7.65
2018-07-20T02:14:52.959Z,7.55
2018-07-20T02:15:58.433Z,7.35
2018-07-20T02:17:20.979Z,8.23
2018-07-20T02:18:26.592Z,10.15
2018-07-20T02:19:33.641Z,10.03
2018-07-20T02:20:38.898Z,10.40
2018-07-20T02:21:43.581Z,9.40
2018-07-20T02:22:48.273Z,8.25
2018-07-20T02:23:53.268Z,9.78
2018-07-20T02:24:58.014Z,7.95
2018-07-20T02:26:02.678Z,8.83
2018-07-20T02:27:07.539Z,9.28
2018-07-20T02:28:12.462Z,8.38
2018-07-20T02:29:17.320Z,8.53
2018-07-20T02:30:23.109Z,8.38
2018-07-20T02:31:27.856Z,8.78
2018-07-20T02:32:32.425Z,8.98
2018-07-20T02:33:37.271Z,8.50
2018-07-20T02:34:41.753Z,9.05
2018-07-20T02:35:46.285Z,9.65
2018-07-20T02:36:50.982Z,8.63
2018-07-20T02:37:55.702Z,8.53
2018-07-20T02:39:00.289Z,9.70
2018-07-20T02:40:05.479Z,8.60
2018-07-20T02:41:10.052Z,8.23
2018-07-20T02:42:14.107Z,8.80
2018-07-20T02:43:18.629Z,9.50
2018-07-20T02:44:23.665Z,8.65
2018-07-20T02:45:28.207Z,9.00
2018-07-20T02:46:32.845Z,8.50
2018-07-20T02:47:37.899Z,8.95
2018-07-20T02:48:42.541Z,8.78
2018-07-20T02:49:47.196Z,8.93
2018-07-20T02:50:52.004Z,9.35
2018-07-20T02:51:57.930Z,8.53
2018-07-20T02:53:06.141Z,8.98
2018-07-20T02:54:13.907Z,9.05
2018-07-20T02:55:18.403Z,9.33
2018-07-20T02:56:22.927Z,9.48
2018-07-20T02:57:27.671Z,9.05
2018-07-20T02:58:32.389Z,8.00
2018-07-20T02:59:37.024Z,8.80
2018-07-20T03:00:41.874Z,9.33
2018-07-20T03:01:46.420Z,10.32
2018-07-20T03:02:50.959Z,9.25
2018-07-20T03:03:55.744Z,9.40
2018-07-20T03:05:00.402Z,8.45
2018-07-20T03:06:04.966Z,8.23
2018-07-20T03:07:09.640Z,7.60
2018-07-20T03:08:14.223Z,8.20
2018-07-20T03:09:19.848Z,8.25
2018-07-20T03:10:24.722Z,7.55
2018-07-20T03:11:29.502Z,8.38
2018-07-20T03:12:34.199Z,7.85
2018-07-20T03:13:39.540Z,6.80
2018-07-20T03:14:44.375Z,7.85
2018-07-20T03:15:49.000Z,7.20
2018-07-20T03:16:53.943Z,7.45
2018-07-20T03:17:58.517Z,8.35
2018-07-20T03:19:09.273Z,8.63
2018-07-20T03:20:13.885Z,9.38
2018-07-20T03:21:18.984Z,7.42
2018-07-20T03:22:23.646Z,9.10
2018-07-20T03:23:28.940Z,12.33
2018-07-20T03:24:33.853Z,11.53
2018-07-20T03:25:38.610Z,11.63
2018-07-20T03:26:43.197Z,12.03
2018-07-20T03:27:48.013Z,10.55
2018-07-20T03:28:52.639Z,10.63
2018-07-20T03:29:57.313Z,9.80
2018-07-20T03:31:01.904Z,10.20
2018-07-20T03:32:11.202Z,9.70
2018-07-20T03:33:15.826Z,9.95
2018-07-20T03:34:20.535Z,10.13
2018-07-20T03:35:25.258Z,8.95
2018-07-20T03:36:30.848Z,8.10
2018-07-20T03:37:37.425Z,8.28
2018-07-20T03:38:41.930Z,7.10
2018-07-20T03:39:46.507Z,7.58
2018-07-20T03:40:51.150Z,7.33
2018-07-20T03:41:55.798Z,7.42
2018-07-20T03:43:00.902Z,7.28
2018-07-20T03:44:05.911Z,7.95
2018-07-20T03:45:12.635Z,8.18
2018-07-20T03:46:20.344Z,8.88
2018-07-20T03:47:26.372Z,8.50
2018-07-20T03:48:32.751Z,8.60
2018-07-20T03:49:39.989Z,7.90
2018-07-20T03:50:49.847Z,8.68
2018-07-20T03:51:56.299Z,8.55
2018-07-20T03:53:03.057Z,8.80
2018-07-20T03:54:11.192Z,9.83
2018-07-20T03:55:20.555Z,8.73
2018-07-20T03:56:28.296Z,8.05
2018-07-20T03:57:34.950Z,9.55
2018-07-20T03:58:41.490Z,9.70
2018-07-20T03:59:49.911Z,10.65
2018-07-20T04:00:54.790Z,10.32
2018-07-20T04:02:07.540Z,12.90
2018-07-20T04:03:16.031Z,11.73
2018-07-20T04:04:21.982Z,9.95
2018-07-20T04:05:28.447Z,10.55
2018-07-20T04:06:35.866Z,11.10
2018-07-20T04:07:42.811Z,10.48
2018-07-20T04:08:49.085Z,11.70
2018-07-20T04:09:55.759Z,9.65
2018-07-20T04:11:04.205Z,10.63
2018-07-20T04:12:12.016Z,10.98
2018-07-20T04:13:18.771Z,9.70
2018-07-20T04:14:30.229Z,8.38
2018-07-20T04:15:38.153Z,8.90
2018-07-20T04:16:48.534Z,8.43
2018-07-20T04:17:54.511Z,8.90
2018-07-20T04:19:00.984Z,8.80
2018-07-20T04:20:08.941Z,8.75
2018-07-20T04:21:16.549Z,9.88
2018-07-20T04:22:23.283Z,10.28
2018-07-20T04:23:30.492Z,10.63
2018-07-20T04:24:36.483Z,10.55
2018-07-20T04:25:41.913Z,10.40
2018-07-20T04:26:48.016Z,9.23
2018-07-20T04:27:53.728Z,9.63
2018-07-20T04:29:01.334Z,8.28
2018-07-20T04:30:44.457Z,8.88
2018-07-20T04:31:49.145Z,8.50
2018-07-20T04:32:55.058Z,8.85
2018-07-20T04:33:59.975Z,9.50
2018-07-20T04:35:05.670Z,10.30
2018-07-20T04:36:10.191Z,9.35
2018-07-20T04:37:14.769Z,10.72
2018-07-20T04:38:20.133Z,9.88
2018-07-20T04:39:25.269Z,9.40
2018-07-20T04:40:29.987Z,11.78
2018-07-20T04:41:36.039Z,10.35
2018-07-20T04:42:40.834Z,11.43
2018-07-20T04:43:45.708Z,10.85
2018-07-20T04:44:50.372Z,9.48
2018-07-20T04:45:56.174Z,9.65
2018-07-20T04:47:02.191Z,8.73
2018-07-20T04:48:07.790Z,8.50
2018-07-20T04:49:15.068Z,8.15
2018-07-20T04:50:19.918Z,8.30
2018-07-20T04:51:24.505Z,8.58
2018-07-20T04:52:29.134Z,8.73
2018-07-20T04:53:33.724Z,11.38
2018-07-20T04:54:38.251Z,9.45
2018-07-20T04:55:42.921Z,9.63
2018-07-20T04:56:47.750Z,9.68
2018-07-20T04:57:52.662Z,10.80
2018-07-20T04:58:57.338Z,9.55
2018-07-20T05:00:02.161Z,10.63
2018-07-20T05:01:07.937Z,8.98
2018-07-20T05:02:13.662Z,9.35
2018-07-20T05:03:18.180Z,8.38
2018-07-20T05:04:22.700Z,10.08
2018-07-20T05:05:27.314Z,8.55
2018-07-20T05:06:32.320Z,8.43
2018-07-20T05:07:36.893Z,8.88
2018-07-20T05:08:41.461Z,8.78
2018-07-20T05:09:46.219Z,8.83
2018-07-20T05:10:51.875Z,8.70
2018-07-20T05:11:57.554Z,8.08
2018-07-20T05:13:02.410Z,9.33
2018-07-20T05:14:07.979Z,9.23
2018-07-20T05:15:12.807Z,9.50
2018-07-20T05:16:17.406Z,8.95
2018-07-20T05:17:22.551Z,9.88
2018-07-20T05:18:27.198Z,9.08
2018-07-20T05:19:31.926Z,8.88
2018-07-20T05:20:36.796Z,10.18
2018-07-20T05:21:41.810Z,8.78
2018-07-20T05:22:46.932Z,9.20
2018-07-20T05:23:52.027Z,9.08
2018-07-20T05:24:56.815Z,10.50
2018-07-20T05:26:02.242Z,9.18
2018-07-20T05:27:07.399Z,10.30
2018-07-20T05:28:12.335Z,9.63
2018-07-20T05:29:17.281Z,10.00
2018-07-20T05:30:22.164Z,9.13
2018-07-20T05:31:27.034Z,9.88
2018-07-20T05:32:31.830Z,10.28
2018-07-20T05:33:37.211Z,9.98
2018-07-20T05:34:42.138Z,9.33
2018-07-20T05:35:47.617Z,10.18
2018-07-20T05:36:53.272Z,10.32
2018-07-20T05:37:59.431Z,9.48
2018-07-20T05:39:04.277Z,9.75
2018-07-20T05:40:09.719Z,10.40
2018-07-20T05:41:14.451Z,10.35
2018-07-20T05:42:19.044Z,9.68
2018-07-20T05:43:23.585Z,9.88
2018-07-20T05:44:28.909Z,10.70
2018-07-20T05:45:33.564Z,10.15
2018-07-20T05:46:38.186Z,9.98
2018-07-20T05:47:42.722Z,10.80
2018-07-20T05:48:47.237Z,10.13
2018-07-20T05:49:52.421Z,10.00
2018-07-20T05:50:57.353Z,9.73
2018-07-20T05:52:02.342Z,10.55
2018-07-20T05:53:07.185Z,10.15
2018-07-20T05:54:12.150Z,10.25
2018-07-20T05:55:16.724Z,11.20
2018-07-20T05:56:21.585Z,11.03
2018-07-20T05:57:26.127Z,11.10
2018-07-20T05:58:31.076Z,10.32
2018-07-20T05:59:35.631Z,12.93
2018-07-20T06:00:40.371Z,11.75
2018-07-20T06:01:44.985Z,11.85
2018-07-20T06:02:50.330Z,12.95
2018-07-20T06:03:56.218Z,12.10
2018-07-20T06:05:01.065Z,13.25
2018-07-20T06:06:05.895Z,10.60
2018-07-20T06:07:10.516Z,11.00
2018-07-20T06:08:15.496Z,11.68
2018-07-20T06:09:20.613Z,12.80
2018-07-20T06:10:25.241Z,14.75
2018-07-20T06:11:31.620Z,12.95
2018-07-20T06:12:36.520Z,13.83
2018-07-20T06:13:41.288Z,13.72
2018-07-20T06:14:47.223Z,13.88
2018-07-20T06:15:51.816Z,12.37
2018-07-20T06:16:56.361Z,14.40
2018-07-20T06:18:01.372Z,13.45
2018-07-20T06:19:06.517Z,13.45
2018-07-20T06:20:11.427Z,13.83
2018-07-20T06:21:16.543Z,12.37
2018-07-20T06:22:21.433Z,13.43
2018-07-20T06:23:26.223Z,12.47
2018-07-20T06:24:30.881Z,13.30
2018-07-20T06:25:36.188Z,13.13
2018-07-20T06:26:41.266Z,13.13
2018-07-20T06:27:46.322Z,12.85
2018-07-20T06:28:51.576Z,12.47
2018-07-20T06:29:57.797Z,13.05
2018-07-20T06:31:02.398Z,12.35
2018-07-20T06:32:08.084Z,12.60
2018-07-20T06:34:26.203Z,12.55
2018-07-20T06:35:30.864Z,13.32
2018-07-20T06:36:35.550Z,11.33
2018-07-20T06:37:40.196Z,14.20
2018-07-20T06:38:46.170Z,12.90
2018-07-20T06:39:51.569Z,14.00
2018-07-20T06:40:56.324Z,14.20
2018-07-20T06:42:01.782Z,13.83
2018-07-20T06:43:06.841Z,14.83
2018-07-20T06:44:13.137Z,14.23
2018-07-20T06:45:19.196Z,14.23
2018-07-20T06:46:24.406Z,13.68
2018-07-20T06:47:30.007Z,13.25
2018-07-20T06:48:34.669Z,12.75
2018-07-20T06:49:40.084Z,14.93
2018-07-20T06:50:46.426Z,14.45
2018-07-20T06:51:51.413Z,14.45
2018-07-20T06:52:58.656Z,15.10
2018-07-20T06:54:05.080Z,14.20
2018-07-20T06:55:17.195Z,13.40
2018-07-20T06:56:24.195Z,14.80
2018-07-20T06:57:28.845Z,14.63
2018-07-20T06:58:33.850Z,14.30
2018-07-20T06:59:38.837Z,19.05
2018-07-20T07:00:44.063Z,15.50
2018-07-20T07:01:49.078Z,14.70
2018-07-20T07:02:53.841Z,14.35
2018-07-20T07:03:58.890Z,14.60
2018-07-20T07:05:04.017Z,14.93
2018-07-20T07:06:08.561Z,14.60
2018-07-20T07:07:13.075Z,13.90
2018-07-20T07:08:19.242Z,14.95
2018-07-20T07:09:24.203Z,14.10
2018-07-20T07:10:31.200Z,14.47
2018-07-20T07:11:36.241Z,14.60
2018-07-20T07:12:41.011Z,13.93
2018-07-20T07:13:45.645Z,14.30
2018-07-20T07:14:52.211Z,14.53
2018-07-20T07:15:56.889Z,14.70
2018-07-20T07:17:02.877Z,13.53
2018-07-20T07:18:09.290Z,13.83
2018-07-20T07:19:14.300Z,13.00
2018-07-20T07:20:19.719Z,14.25
2018-07-20T07:21:24.517Z,15.08
2018-07-20T07:22:32.018Z,13.70
2018-07-20T07:23:37.215Z,12.82
2018-07-20T07:24:43.482Z,14.75
2018-07-20T07:25:49.825Z,15.13
2018-07-20T07:26:54.646Z,15.50
2018-07-20T07:28:00.085Z,14.07
2018-07-20T07:29:06.338Z,14.80
2018-07-20T07:30:11.504Z,14.45
2018-07-20T07:32:19.989Z,14.58
2018-07-20T07:33:27.206Z,17.32
2018-07-20T07:34:36.566Z,15.30
2018-07-20T07:35:45.887Z,15.75
2018-07-20T07:36:51.512Z,14.40
2018-07-20T07:37:56.823Z,15.83
2018-07-20T07:39:02.257Z,14.47
2018-07-20T07:40:09.360Z,15.08
2018-07-20T07:41:20.007Z,16.40
2018-07-20T07:42:30.474Z,14.60
2018-07-20T07:43:38.406Z,15.13
2018-07-20T07:44:53.975Z,15.78
2018-07-20T07:46:02.651Z,15.48
2018-07-20T07:47:10.098Z,14.50
2018-07-20T07:48:17.152Z,15.88
2018-07-20T07:49:22.069Z,18.30
2018-07-20T07:50:27.900Z,16.02
2018-07-20T07:51:32.537Z,15.78
2018-07-20T07:52:37.501Z,16.27
2018-07-20T07:53:42.488Z,16.25
2018-07-20T07:54:47.214Z,16.27
2018-07-20T07:55:52.117Z,18.48
2018-07-20T07:56:58.811Z,17.10
2018-07-20T07:58:03.741Z,17.82
2018-07-20T07:59:09.099Z,16.55
2018-07-20T08:00:14.187Z,15.78
2018-07-20T08:01:19.628Z,16.73
2018-07-20T08:02:30.675Z,18.05
2018-07-20T08:03:35.868Z,16.80
2018-07-20T08:04:43.220Z,17.17
2018-07-20T08:05:47.740Z,16.10
2018-07-20T08:06:52.971Z,16.45
2018-07-20T08:07:59.200Z,18.12
2018-07-20T08:09:04.796Z,21.70
2018-07-20T08:10:11.053Z,18.15
2018-07-20T08:11:16.208Z,18.35
2018-07-20T08:12:21.512Z,19.87
2018-07-20T08:13:26.069Z,22.07
2018-07-20T08:14:30.587Z,19.90
2018-07-20T08:15:35.793Z,20.45
2018-07-20T08:16:40.749Z,24.90
2018-07-20T08:17:46.781Z,20.75
2018-07-20T08:18:52.175Z,21.20
2018-07-20T08:19:56.751Z,20.52
2018-07-20T08:21:01.873Z,19.27
2018-07-20T08:22:06.837Z,18.00
2018-07-20T08:23:14.662Z,22.58
2018-07-20T08:24:20.789Z,20.15
2018-07-20T08:25:26.138Z,19.05
2018-07-20T08:26:31.270Z,16.73
2018-07-20T08:27:35.918Z,17.92
2018-07-20T08:28:40.780Z,17.30
2018-07-20T08:29:45.940Z,20.62
2018-07-20T08:30:50.686Z,19.05
2018-07-20T08:31:55.687Z,20.60
2018-07-20T08:33:00.827Z,19.50
2018-07-20T08:34:05.513Z,20.60
2018-07-20T08:35:11.046Z,21.00
2018-07-20T08:36:16.996Z,18.45
2018-07-20T08:37:22.513Z,18.80
2018-07-20T08:38:27.537Z,20.75
2018-07-20T08:39:32.324Z,17.67
2018-07-20T08:40:39.013Z,17.67
2018-07-20T08:41:44.513Z,16.60
2018-07-20T08:42:49.362Z,17.90
2018-07-20T08:43:55.437Z,17.67
2018-07-20T08:45:00.058Z,19.82
2018-07-20T08:46:04.940Z,17.85
2018-07-20T08:47:09.805Z,18.05
2018-07-20T08:48:14.836Z,17.50
2018-07-20T08:49:20.000Z,18.25
2018-07-20T08:50:30.376Z,20.97
2018-07-20T08:51:38.037Z,18.23
2018-07-20T08:52:49.277Z,20.65
2018-07-20T08:53:55.125Z,17.50
2018-07-20T08:55:37.832Z,17.95
2018-07-20T08:56:42.833Z,19.23
2018-07-20T08:57:47.721Z,19.45
2018-07-20T08:58:55.634Z,19.73
2018-07-20T09:00:01.056Z,18.17
2018-07-20T09:01:09.692Z,18.85
2018-07-20T09:02:14.781Z,18.00
2018-07-20T09:03:31.118Z,16.93
2018-07-20T09:04:36.659Z,17.60
2018-07-20T09:05:43.079Z,17.40
2018-07-20T09:06:48.634Z,17.75
2018-07-20T09:07:53.458Z,20.43
2018-07-20T09:09:01.842Z,19.98
2018-07-20T09:10:07.940Z,19.32
2018-07-20T09:11:13.077Z,18.75
2018-07-20T09:12:18.156Z,19.48
2018-07-20T09:13:22.868Z,19.50
2018-07-20T09:14:28.089Z,20.57
2018-07-20T09:15:34.769Z,19.55
2018-07-20T09:16:40.710Z,18.37
2018-07-20T09:17:46.746Z,18.90
2018-07-20T09:18:52.453Z,21.42
2018-07-20T09:19:57.199Z,20.62
2018-07-20T09:21:02.932Z,19.73
2018-07-20T09:22:10.809Z,22.35
2018-07-20T09:23:18.400Z,19.60
2018-07-20T09:24:23.283Z,15.72
2018-07-20T09:25:27.945Z,20.52
2018-07-20T09:26:34.784Z,19.12
2018-07-20T09:27:43.536Z,17.87
2018-07-20T09:28:48.906Z,18.42
2018-07-20T09:29:54.710Z,19.35
2018-07-20T09:31:01.770Z,18.15
2018-07-20T09:32:06.390Z,17.20
2018-07-20T09:33:11.009Z,20.97
2018-07-20T09:34:16.496Z,23.20
2018-07-20T09:35:21.597Z,17.57
2018-07-20T09:36:27.882Z,16.57
2018-07-20T09:37:36.632Z,18.48
2018-07-20T09:38:41.697Z,17.73
2018-07-20T09:39:46.291Z,17.25
2018-07-20T09:40:51.276Z,18.67
2018-07-20T09:41:55.889Z,16.95
2018-07-20T09:43:00.718Z,16.80
2018-07-20T09:44:05.499Z,17.02
2018-07-20T09:45:12.555Z,17.17
2018-07-20T09:46:17.795Z,15.08
2018-07-20T09:47:22.974Z,15.55
2018-07-20T09:48:28.088Z,13.90
2018-07-20T09:49:32.691Z,14.85
2018-07-20T09:50:37.822Z,15.70
2018-07-20T09:51:42.628Z,15.45
2018-07-20T09:52:47.481Z,12.47
2018-07-20T09:53:52.816Z,12.03
2018-07-20T09:54:57.685Z,14.33
2018-07-20T09:56:03.229Z,11.97
2018-07-20T09:57:08.235Z,15.80
2018-07-20T09:58:13.095Z,11.85
2018-07-20T09:59:18.298Z,12.03
2018-07-20T10:00:28.198Z,11.68
2018-07-20T10:01:33.076Z,10.50
2018-07-20T10:02:37.639Z,9.98
2018-07-20T10:04:57.442Z,9.63
2018-07-20T10:06:03.192Z,9.98
2018-07-20T10:07:07.970Z,11.00
2018-07-20T10:08:13.352Z,11.73
2018-07-20T10:09:20.205Z,12.35
2018-07-20T10:10:25.236Z,12.98
2018-07-20T10:11:35.775Z,14.20
2018-07-20T10:12:41.227Z,11.45
2018-07-20T10:13:46.089Z,11.65
2018-07-20T10:14:51.713Z,12.03
2018-07-20T10:16:03.167Z,11.33
2018-07-20T10:17:08.125Z,11.18
2018-07-20T10:18:14.357Z,11.22
2018-07-20T10:19:19.839Z,11.25
2018-07-20T10:20:24.793Z,11.50
2018-07-20T10:21:30.149Z,10.98
2018-07-20T10:22:35.207Z,10.98
2018-07-20T10:23:42.430Z,11.60
2018-07-20T10:24:48.089Z,11.18
2018-07-20T10:25:53.199Z,11.40
2018-07-20T10:26:58.102Z,10.30
2018-07-20T10:28:04.678Z,10.45
2018-07-20T10:29:09.820Z,8.53
2018-07-20T10:30:15.360Z,11.65
2018-07-20T10:31:22.102Z,12.18
2018-07-20T10:32:26.693Z,10.98
2018-07-20T10:33:33.278Z,10.70
2018-07-20T10:34:45.497Z,10.80
2018-07-20T10:35:53.769Z,10.03
2018-07-20T10:37:01.346Z,9.70
2018-07-20T10:38:08.956Z,8.85
2018-07-20T10:39:14.823Z,10.32
2018-07-20T10:40:25.931Z,10.10
2018-07-20T10:41:30.825Z,10.85
2018-07-20T10:42:41.136Z,11.33
2018-07-20T10:43:51.099Z,11.38
2018-07-20T10:44:58.200Z,11.00
2018-07-20T10:46:05.491Z,10.20
2018-07-20T10:47:11.697Z,10.72
2018-07-20T10:48:17.355Z,10.55
2018-07-20T10:49:22.828Z,12.68
2018-07-20T10:50:28.809Z,10.80
2018-07-20T10:51:35.861Z,9.73
2018-07-20T10:52:44.243Z,9.00
2018-07-20T10:54:21.495Z,6.25
2018-07-20T10:55:32.566Z,4.58
2018-07-20T10:56:46.103Z,3.70
2018-07-20T10:57:54.609Z,5.17
2018-07-20T10:59:04.125Z,5.37
2018-07-20T11:00:09.338Z,5.10
2018-07-20T11:01:15.452Z,6.12
2018-07-20T11:02:23.293Z,6.30
2018-07-20T11:03:30.223Z,7.10
2018-07-20T11:04:36.703Z,7.15
2018-07-20T11:05:44.195Z,6.15
2018-07-20T11:06:52.868Z,5.20
2018-07-20T11:07:59.244Z,6.80
2018-07-20T11:09:04.950Z,5.67
2018-07-20T11:10:13.090Z,5.97
2018-07-20T11:11:20.127Z,5.53
2018-07-20T11:12:25.197Z,6.35
2018-07-20T11:13:32.234Z,7.45
2018-07-20T11:14:39.695Z,6.92
2018-07-20T11:15:45.800Z,7.45
2018-07-20T11:16:57.469Z,7.58
2018-07-20T11:18:03.365Z,11.40
2018-07-20T11:19:08.439Z,7.20
2018-07-20T11:20:18.376Z,6.08
2018-07-20T11:21:26.055Z,11.08
2018-07-20T11:22:33.353Z,18.85
2018-07-20T11:23:44.495Z,12.28
2018-07-20T11:24:52.415Z,9.63
2018-07-20T11:25:59.576Z,7.58
2018-07-20T11:27:05.521Z,7.35
2018-07-20T11:28:13.389Z,8.28
2018-07-20T11:29:19.650Z,7.55
2018-07-20T11:30:28.756Z,6.40
2018-07-20T11:31:34.719Z,7.72
2018-07-20T11:32:40.961Z,7.25
2018-07-20T11:33:46.329Z,6.42
2018-07-20T11:34:52.921Z,6.47
2018-07-20T11:36:04.026Z,6.10
2018-07-20T11:37:11.267Z,6.75
2018-07-20T11:38:17.212Z,5.40
2018-07-20T11:39:22.437Z,6.30
2018-07-20T11:40:27.630Z,5.72
2018-07-20T11:41:32.340Z,5.87
2018-07-20T11:42:37.391Z,6.35
2018-07-20T11:43:43.274Z,5.62
2018-07-20T11:44:51.156Z,8.00
2018-07-20T11:45:57.260Z,6.37
2018-07-20T11:47:02.102Z,6.35
2018-07-20T11:48:06.979Z,5.03
2018-07-20T11:49:12.066Z,5.65
2018-07-20T11:50:17.202Z,5.12
2018-07-20T11:51:24.418Z,5.25
2018-07-20T11:52:30.256Z,5.15
2018-07-20T11:53:39.688Z,5.53
2018-07-20T11:54:46.108Z,4.75
2018-07-20T11:55:51.388Z,5.15
2018-07-20T11:57:01.839Z,5.05
2018-07-20T11:58:08.720Z,5.85
2018-07-20T11:59:18.224Z,5.37
2018-07-20T12:00:27.217Z,4.85
2018-07-20T12:01:33.241Z,5.00
2018-07-20T12:02:43.077Z,4.92
2018-07-20T12:03:50.430Z,5.05
2018-07-20T12:04:57.890Z,5.20
2018-07-20T12:06:03.095Z,5.80
2018-07-20T12:07:08.633Z,5.67
2018-07-20T12:08:13.606Z,5.70
2018-07-20T12:09:18.565Z,9.15
2018-07-20T12:10:25.180Z,7.53
2018-07-20T12:11:30.282Z,6.70
2018-07-20T12:12:35.383Z,6.80
2018-07-20T12:13:40.861Z,6.53
2018-07-20T12:14:45.689Z,6.05
2018-07-20T12:15:51.086Z,7.50
2018-07-20T12:16:55.705Z,7.33
2018-07-20T12:18:00.570Z,6.12
2018-07-20T12:19:08.393Z,6.70
2018-07-20T12:20:13.015Z,6.87
2018-07-20T12:21:17.874Z,7.58
2018-07-20T12:22:23.654Z,6.15
2018-07-20T12:23:30.204Z,6.53
2018-07-20T12:24:37.747Z,17.52
2018-07-20T12:25:44.644Z,11.05
2018-07-20T12:26:50.034Z,14.35
2018-07-20T12:28:03.559Z,7.78
2018-07-20T12:29:08.780Z,8.38
2018-07-20T12:30:14.342Z,7.47
2018-07-20T12:31:19.569Z,8.15
2018-07-20T12:32:24.749Z,7.55
2018-07-20T12:33:29.425Z,6.45
2018-07-20T12:34:34.841Z,6.85
2018-07-20T12:35:40.422Z,7.03
2018-07-20T12:36:47.442Z,8.63
2018-07-20T12:37:53.405Z,10.53
2018-07-20T12:38:58.384Z,15.80
2018-07-20T12:40:03.645Z,8.38
2018-07-20T12:41:09.201Z,7.85
2018-07-20T12:42:14.169Z,8.48
2018-07-20T12:43:19.214Z,6.35
2018-07-20T12:44:28.289Z,7.45
2018-07-20T12:45:33.868Z,7.40
2018-07-20T12:46:39.230Z,7.28
2018-07-20T12:47:57.131Z,6.90
2018-07-20T12:49:04.459Z,7.72
2018-07-20T12:50:09.754Z,7.30
2018-07-20T12:51:14.834Z,8.33
2018-07-20T12:52:20.235Z,6.37
2018-07-20T12:53:27.454Z,6.53
2018-07-20T12:54:35.202Z,6.90
2018-07-20T12:55:41.624Z,10.25
2018-07-20T12:56:46.402Z,7.62
2018-07-20T12:57:53.913Z,6.95
2018-07-20T12:59:00.189Z,7.03
2018-07-20T13:00:06.712Z,10.10
2018-07-20T13:01:14.304Z,7.83
2018-07-20T13:02:21.451Z,9.00
2018-07-20T13:03:30.443Z,7.65
2018-07-20T13:04:37.373Z,7.15
2018-07-20T13:05:43.849Z,7.55
2018-07-20T13:06:52.546Z,6.80
2018-07-20T13:07:57.450Z,7.47
2018-07-20T13:09:03.751Z,7.50
2018-07-20T13:10:10.105Z,8.93
2018-07-20T13:11:15.276Z,8.53
2018-07-20T13:12:23.045Z,8.28
2018-07-20T13:13:27.715Z,9.15
2018-07-20T13:14:34.847Z,8.70
2018-07-20T13:15:43.203Z,8.70
2018-07-20T13:16:49.514Z,8.93
2018-07-20T13:17:55.997Z,8.75
2018-07-20T13:19:00.657Z,7.75
2018-07-20T13:20:07.459Z,9.30
2018-07-20T13:21:13.495Z,9.93
2018-07-20T13:22:20.713Z,9.18
2018-07-20T13:23:27.837Z,8.13
2018-07-20T13:24:35.280Z,8.60
2018-07-20T13:25:44.686Z,8.25
2018-07-20T13:26:49.738Z,9.65
2018-07-20T13:27:55.354Z,8.50
2018-07-20T13:29:00.059Z,9.23
2018-07-20T13:30:07.648Z,8.28
2018-07-20T13:31:12.809Z,7.40
2018-07-20T13:32:18.245Z,8.35
2018-07-20T13:33:23.835Z,9.00
2018-07-20T13:34:30.429Z,11.33
2018-07-20T13:35:36.366Z,8.40
2018-07-20T13:36:45.065Z,10.78
2018-07-20T13:37:54.872Z,10.30
2018-07-20T13:39:01.043Z,7.60
2018-07-20T13:40:06.882Z,10.65
2018-07-20T13:41:11.501Z,9.80
2018-07-20T13:42:16.541Z,9.30
2018-07-20T13:43:23.747Z,9.73
2018-07-20T13:44:32.789Z,10.95
2018-07-20T13:45:41.183Z,9.53
2018-07-20T13:46:46.544Z,9.18
2018-07-20T13:47:55.496Z,8.60
2018-07-20T13:49:00.670Z,11.53
2018-07-20T13:50:06.362Z,11.43
2018-07-20T13:51:14.335Z,10.80
2018-07-20T13:52:20.498Z,9.98
2018-07-20T13:53:26.594Z,8.33
2018-07-20T13:54:32.252Z,18.15
2018-07-20T13:55:39.714Z,19.48
2018-07-20T13:56:45.810Z,11.88
2018-07-20T13:57:52.632Z,10.03
2018-07-20T13:58:58.458Z,10.03
2018-07-20T14:00:03.670Z,9.45
2018-07-20T14:01:10.045Z,10.00
2018-07-20T14:03:45.187Z,11.40
2018-07-20T14:04:52.329Z,11.45
2018-07-20T14:06:00.467Z,11.60
2018-07-20T14:07:06.457Z,9.35
2018-07-20T14:08:12.722Z,9.20
2018-07-20T14:09:18.361Z,10.50
2018-07-20T14:10:24.927Z,9.30
2018-07-20T14:11:46.218Z,7.55
2018-07-20T14:12:54.341Z,8.60
2018-07-20T14:14:01.790Z,11.15
2018-07-20T14:15:14.206Z,9.45
2018-07-20T14:16:22.205Z,9.80
2018-07-20T14:17:27.212Z,10.75
2018-07-20T14:18:35.310Z,9.48
2018-07-20T14:21:40.299Z,10.15
2018-07-20T14:22:47.752Z,10.50
2018-07-20T14:23:53.630Z,10.05
2018-07-20T14:25:02.208Z,10.60
2018-07-20T14:26:09.136Z,8.30
2018-07-20T14:27:14.686Z,9.90
2018-07-20T14:28:21.563Z,10.28
2018-07-20T14:29:27.248Z,12.03
2018-07-20T14:30:33.190Z,11.45
2018-07-20T14:31:41.041Z,11.00
2018-07-20T14:32:46.368Z,11.05
2018-07-20T14:33:51.463Z,9.68